sensor_id;sensor_type;location;lat;lon;timestamp;P1;durP1;ratioP1;P2;durP2;ratioP2
5616;SDS011;2830;50.656;7.568;2023-01-23T00:01:02;19.80;;;10.32;;
5616;SDS011;2830;50.656;7.568;2023-01-23T00:03:32;19.05;;;10.20;;
5616;SDS011;2830;50.656;7.568;2023-01-23T00:06:00;19.27;;;10.05;;
5616;SDS011;2830;50.656;7.568;2023-01-23T00:08:28;22.95;;;11.88;;
5616;SDS011;2830;50.656;7.568;2023-01-23T00:10:55;19.13;;;10.05;;
5616;SDS011;2830;50.656;7.568;2023-01-23T00:13:22;21.48;;;10.00;;
5616;SDS011;2830;50.656;7.568;2023-01-23T00:15:50;20.42;;;10.90;;
5616;SDS011;2830;50.656;7.568;2023-01-23T00:18:16;19.65;;;9.80;;
5616;SDS011;2830;50.656;7.568;2023-01-23T00:20:43;20.75;;;10.65;;
5616;SDS011;2830;50.656;7.568;2023-01-23T00:23:10;22.85;;;10.05;;
5616;SDS011;2830;50.656;7.568;2023-01-23T00:25:37;18.90;;;9.73;;
5616;SDS011;2830;50.656;7.568;2023-01-23T00:28:04;19.30;;;9.57;;
5616;SDS011;2830;50.656;7.568;2023-01-23T00:30:31;20.25;;;9.80;;
5616;SDS011;2830;50.656;7.568;2023-01-23T00:32:58;19.08;;;10.00;;
5616;SDS011;2830;50.656;7.568;2023-01-23T00:35:24;21.35;;;10.95;;
5616;SDS011;2830;50.656;7.568;2023-01-23T00:37:51;18.10;;;10.52;;
5616;SDS011;2830;50.656;7.568;2023-01-23T00:40:18;17.23;;;9.55;;
5616;SDS011;2830;50.656;7.568;2023-01-23T00:42:45;20.92;;;10.30;;
5616;SDS011;2830;50.656;7.568;2023-01-23T00:45:12;18.42;;;9.10;;
5616;SDS011;2830;50.656;7.568;2023-01-23T00:47:38;16.88;;;9.25;;
5616;SDS011;2830;50.656;7.568;2023-01-23T00:50:05;17.92;;;9.05;;
5616;SDS011;2830;50.656;7.568;2023-01-23T00:52:32;18.85;;;8.35;;
5616;SDS011;2830;50.656;7.568;2023-01-23T00:54:58;18.17;;;8.80;;
5616;SDS011;2830;50.656;7.568;2023-01-23T00:57:25;19.55;;;9.23;;
5616;SDS011;2830;50.656;7.568;2023-01-23T00:59:52;16.88;;;8.88;;
5616;SDS011;2830;50.656;7.568;2023-01-23T01:02:18;21.17;;;8.73;;
5616;SDS011;2830;50.656;7.568;2023-01-23T01:04:45;17.00;;;7.82;;
5616;SDS011;2830;50.656;7.568;2023-01-23T01:07:12;17.02;;;8.35;;
5616;SDS011;2830;50.656;7.568;2023-01-23T01:09:38;16.85;;;8.27;;
5616;SDS011;2830;50.656;7.568;2023-01-23T01:12:05;16.35;;;8.52;;
5616;SDS011;2830;50.656;7.568;2023-01-23T01:14:32;16.40;;;8.45;;
5616;SDS011;2830;50.656;7.568;2023-01-23T01:16:58;17.65;;;8.30;;
5616;SDS011;2830;50.656;7.568;2023-01-23T01:19:25;16.15;;;8.25;;
5616;SDS011;2830;50.656;7.568;2023-01-23T01:21:53;18.33;;;9.15;;
5616;SDS011;2830;50.656;7.568;2023-01-23T01:24:19;15.15;;;7.78;;
5616;SDS011;2830;50.656;7.568;2023-01-23T01:26:46;16.30;;;7.57;;
5616;SDS011;2830;50.656;7.568;2023-01-23T01:29:14;17.15;;;8.32;;
5616;SDS011;2830;50.656;7.568;2023-01-23T01:31:40;15.43;;;7.32;;
5616;SDS011;2830;50.656;7.568;2023-01-23T01:34:07;15.73;;;7.72;;
5616;SDS011;2830;50.656;7.568;2023-01-23T01:36:34;18.30;;;8.15;;
5616;SDS011;2830;50.656;7.568;2023-01-23T01:39:00;15.05;;;7.18;;
5616;SDS011;2830;50.656;7.568;2023-01-23T01:41:27;16.83;;;7.97;;
5616;SDS011;2830;50.656;7.568;2023-01-23T01:43:54;20.00;;;8.73;;
5616;SDS011;2830;50.656;7.568;2023-01-23T01:46:23;16.60;;;8.55;;
5616;SDS011;2830;50.656;7.568;2023-01-23T01:51:23;16.33;;;7.47;;
5616;SDS011;2830;50.656;7.568;2023-01-23T01:53:57;14.82;;;7.00;;
5616;SDS011;2830;50.656;7.568;2023-01-23T01:56:45;17.45;;;8.05;;
5616;SDS011;2830;50.656;7.568;2023-01-23T01:59:24;16.83;;;7.93;;
5616;SDS011;2830;50.656;7.568;2023-01-23T02:01:56;16.38;;;8.25;;
5616;SDS011;2830;50.656;7.568;2023-01-23T02:04:31;16.58;;;7.57;;
5616;SDS011;2830;50.656;7.568;2023-01-23T02:07:02;17.25;;;8.45;;
5616;SDS011;2830;50.656;7.568;2023-01-23T02:09:33;15.80;;;7.35;;
5616;SDS011;2830;50.656;7.568;2023-01-23T02:12:00;16.85;;;8.60;;
5616;SDS011;2830;50.656;7.568;2023-01-23T02:14:27;18.35;;;8.30;;
5616;SDS011;2830;50.656;7.568;2023-01-23T02:16:54;16.50;;;8.35;;
5616;SDS011;2830;50.656;7.568;2023-01-23T02:19:35;15.82;;;7.65;;
5616;SDS011;2830;50.656;7.568;2023-01-23T02:22:29;15.20;;;6.78;;
5616;SDS011;2830;50.656;7.568;2023-01-23T02:27:47;15.23;;;6.68;;
5616;SDS011;2830;50.656;7.568;2023-01-23T02:30:14;16.65;;;7.60;;
5616;SDS011;2830;50.656;7.568;2023-01-23T02:32:43;16.25;;;7.55;;
5616;SDS011;2830;50.656;7.568;2023-01-23T02:35:11;16.80;;;7.18;;
5616;SDS011;2830;50.656;7.568;2023-01-23T02:37:45;16.85;;;7.28;;
5616;SDS011;2830;50.656;7.568;2023-01-23T02:40:13;15.18;;;7.20;;
5616;SDS011;2830;50.656;7.568;2023-01-23T02:42:41;17.85;;;7.00;;
5616;SDS011;2830;50.656;7.568;2023-01-23T02:45:09;16.05;;;7.97;;
5616;SDS011;2830;50.656;7.568;2023-01-23T02:47:36;15.43;;;7.28;;
5616;SDS011;2830;50.656;7.568;2023-01-23T02:50:03;14.60;;;7.05;;
5616;SDS011;2830;50.656;7.568;2023-01-23T02:52:30;16.02;;;8.13;;
5616;SDS011;2830;50.656;7.568;2023-01-23T02:54:57;15.80;;;6.53;;
5616;SDS011;2830;50.656;7.568;2023-01-23T02:57:23;14.50;;;6.78;;
5616;SDS011;2830;50.656;7.568;2023-01-23T02:59:50;14.48;;;6.55;;
5616;SDS011;2830;50.656;7.568;2023-01-23T03:02:37;15.65;;;7.55;;
5616;SDS011;2830;50.656;7.568;2023-01-23T03:05:04;14.50;;;6.75;;
5616;SDS011;2830;50.656;7.568;2023-01-23T03:07:31;13.77;;;6.72;;
5616;SDS011;2830;50.656;7.568;2023-01-23T03:09:58;15.02;;;6.57;;
5616;SDS011;2830;50.656;7.568;2023-01-23T03:12:24;13.57;;;5.95;;
5616;SDS011;2830;50.656;7.568;2023-01-23T03:14:51;16.85;;;8.20;;
5616;SDS011;2830;50.656;7.568;2023-01-23T03:17:20;15.00;;;7.45;;
5616;SDS011;2830;50.656;7.568;2023-01-23T03:19:48;15.65;;;7.10;;
5616;SDS011;2830;50.656;7.568;2023-01-23T03:22:14;19.33;;;7.68;;
5616;SDS011;2830;50.656;7.568;2023-01-23T03:24:41;15.38;;;6.30;;
5616;SDS011;2830;50.656;7.568;2023-01-23T03:27:08;14.63;;;6.43;;
5616;SDS011;2830;50.656;7.568;2023-01-23T03:29:34;16.15;;;6.75;;
5616;SDS011;2830;50.656;7.568;2023-01-23T03:32:19;13.95;;;5.82;;
5616;SDS011;2830;50.656;7.568;2023-01-23T03:34:47;15.73;;;7.20;;
5616;SDS011;2830;50.656;7.568;2023-01-23T03:37:14;14.50;;;6.45;;
5616;SDS011;2830;50.656;7.568;2023-01-23T03:39:41;14.10;;;6.82;;
5616;SDS011;2830;50.656;7.568;2023-01-23T03:42:27;13.98;;;6.43;;
5616;SDS011;2830;50.656;7.568;2023-01-23T03:44:53;14.40;;;5.90;;
5616;SDS011;2830;50.656;7.568;2023-01-23T03:47:20;13.75;;;5.85;;
5616;SDS011;2830;50.656;7.568;2023-01-23T03:49:47;13.68;;;5.65;;
5616;SDS011;2830;50.656;7.568;2023-01-23T03:52:13;14.57;;;6.13;;
5616;SDS011;2830;50.656;7.568;2023-01-23T03:54:41;12.77;;;5.75;;
5616;SDS011;2830;50.656;7.568;2023-01-23T03:57:08;13.05;;;5.85;;
5616;SDS011;2830;50.656;7.568;2023-01-23T03:59:35;15.80;;;5.93;;
5616;SDS011;2830;50.656;7.568;2023-01-23T04:02:02;13.63;;;5.88;;
5616;SDS011;2830;50.656;7.568;2023-01-23T04:04:33;15.95;;;6.22;;
5616;SDS011;2830;50.656;7.568;2023-01-23T04:07:01;14.82;;;7.47;;
5616;SDS011;2830;50.656;7.568;2023-01-23T04:09:28;15.55;;;7.47;;
5616;SDS011;2830;50.656;7.568;2023-01-23T04:11:56;13.82;;;6.53;;
5616;SDS011;2830;50.656;7.568;2023-01-23T04:14:24;11.82;;;5.50;;
5616;SDS011;2830;50.656;7.568;2023-01-23T04:16:51;12.63;;;5.10;;
5616;SDS011;2830;50.656;7.568;2023-01-23T04:19:19;12.18;;;4.82;;
5616;SDS011;2830;50.656;7.568;2023-01-23T04:21:46;10.60;;;4.40;;
5616;SDS011;2830;50.656;7.568;2023-01-23T04:24:14;12.32;;;5.05;;
5616;SDS011;2830;50.656;7.568;2023-01-23T04:26:42;12.02;;;5.10;;
5616;SDS011;2830;50.656;7.568;2023-01-23T04:29:08;11.38;;;4.72;;
5616;SDS011;2830;50.656;7.568;2023-01-23T04:31:35;13.40;;;5.72;;
5616;SDS011;2830;50.656;7.568;2023-01-23T04:34:02;13.50;;;5.38;;
5616;SDS011;2830;50.656;7.568;2023-01-23T04:36:29;13.30;;;6.28;;
5616;SDS011;2830;50.656;7.568;2023-01-23T04:38:56;11.63;;;5.15;;
5616;SDS011;2830;50.656;7.568;2023-01-23T04:41:25;13.13;;;4.95;;
5616;SDS011;2830;50.656;7.568;2023-01-23T04:43:53;12.15;;;5.40;;
5616;SDS011;2830;50.656;7.568;2023-01-23T04:46:20;14.63;;;7.93;;
5616;SDS011;2830;50.656;7.568;2023-01-23T04:48:47;15.98;;;9.23;;
5616;SDS011;2830;50.656;7.568;2023-01-23T04:51:14;12.05;;;5.85;;
5616;SDS011;2830;50.656;7.568;2023-01-23T04:53:41;12.05;;;4.60;;
5616;SDS011;2830;50.656;7.568;2023-01-23T04:56:08;12.88;;;5.82;;
5616;SDS011;2830;50.656;7.568;2023-01-23T04:58:34;11.43;;;4.47;;
5616;SDS011;2830;50.656;7.568;2023-01-23T05:01:06;14.25;;;5.47;;
5616;SDS011;2830;50.656;7.568;2023-01-23T05:03:33;14.35;;;6.53;;
5616;SDS011;2830;50.656;7.568;2023-01-23T05:06:00;13.48;;;5.25;;
5616;SDS011;2830;50.656;7.568;2023-01-23T05:08:27;12.38;;;5.53;;
5616;SDS011;2830;50.656;7.568;2023-01-23T05:10:53;13.57;;;5.18;;
5616;SDS011;2830;50.656;7.568;2023-01-23T05:13:20;14.25;;;5.60;;
5616;SDS011;2830;50.656;7.568;2023-01-23T05:15:47;12.55;;;5.60;;
5616;SDS011;2830;50.656;7.568;2023-01-23T05:18:14;16.98;;;8.77;;
5616;SDS011;2830;50.656;7.568;2023-01-23T05:20:40;12.18;;;5.40;;
5616;SDS011;2830;50.656;7.568;2023-01-23T05:23:07;12.10;;;5.20;;
5616;SDS011;2830;50.656;7.568;2023-01-23T05:25:33;12.65;;;5.35;;
5616;SDS011;2830;50.656;7.568;2023-01-23T05:28:00;12.73;;;5.60;;
5616;SDS011;2830;50.656;7.568;2023-01-23T05:30:28;14.05;;;5.45;;
5616;SDS011;2830;50.656;7.568;2023-01-23T05:32:54;12.80;;;4.97;;
5616;SDS011;2830;50.656;7.568;2023-01-23T05:35:21;13.02;;;5.25;;
5616;SDS011;2830;50.656;7.568;2023-01-23T05:37:48;15.80;;;7.68;;
5616;SDS011;2830;50.656;7.568;2023-01-23T05:40:16;14.38;;;7.00;;
5616;SDS011;2830;50.656;7.568;2023-01-23T05:42:44;13.45;;;6.30;;
5616;SDS011;2830;50.656;7.568;2023-01-23T05:45:11;16.05;;;7.55;;
5616;SDS011;2830;50.656;7.568;2023-01-23T05:47:38;15.88;;;7.13;;
5616;SDS011;2830;50.656;7.568;2023-01-23T05:50:06;14.68;;;6.75;;
5616;SDS011;2830;50.656;7.568;2023-01-23T05:52:37;13.00;;;5.57;;
5616;SDS011;2830;50.656;7.568;2023-01-23T05:55:04;13.50;;;5.72;;
5616;SDS011;2830;50.656;7.568;2023-01-23T05:57:32;17.25;;;6.10;;
5616;SDS011;2830;50.656;7.568;2023-01-23T05:59:59;13.80;;;5.53;;
5616;SDS011;2830;50.656;7.568;2023-01-23T06:02:26;27.13;;;9.65;;
5616;SDS011;2830;50.656;7.568;2023-01-23T06:04:52;31.17;;;14.68;;
5616;SDS011;2830;50.656;7.568;2023-01-23T06:07:22;29.58;;;13.18;;
5616;SDS011;2830;50.656;7.568;2023-01-23T06:09:48;29.52;;;12.77;;
5616;SDS011;2830;50.656;7.568;2023-01-23T06:12:15;40.40;;;15.13;;
5616;SDS011;2830;50.656;7.568;2023-01-23T06:14:42;27.27;;;11.32;;
5616;SDS011;2830;50.656;7.568;2023-01-23T06:17:09;21.15;;;9.38;;
5616;SDS011;2830;50.656;7.568;2023-01-23T06:19:37;16.40;;;7.28;;
5616;SDS011;2830;50.656;7.568;2023-01-23T06:22:03;17.95;;;9.20;;
5616;SDS011;2830;50.656;7.568;2023-01-23T06:24:30;17.55;;;8.88;;
5616;SDS011;2830;50.656;7.568;2023-01-23T06:26:57;17.52;;;8.18;;
5616;SDS011;2830;50.656;7.568;2023-01-23T06:29:24;17.90;;;8.18;;
5616;SDS011;2830;50.656;7.568;2023-01-23T06:31:50;16.23;;;7.85;;
5616;SDS011;2830;50.656;7.568;2023-01-23T06:34:17;18.48;;;8.60;;
5616;SDS011;2830;50.656;7.568;2023-01-23T06:36:44;18.70;;;8.77;;
5616;SDS011;2830;50.656;7.568;2023-01-23T06:39:11;24.55;;;11.75;;
5616;SDS011;2830;50.656;7.568;2023-01-23T06:41:38;33.95;;;17.10;;
5616;SDS011;2830;50.656;7.568;2023-01-23T06:44:05;20.15;;;10.23;;
5616;SDS011;2830;50.656;7.568;2023-01-23T06:46:32;20.00;;;9.13;;
5616;SDS011;2830;50.656;7.568;2023-01-23T06:48:59;16.48;;;7.57;;
5616;SDS011;2830;50.656;7.568;2023-01-23T06:51:26;17.92;;;8.65;;
5616;SDS011;2830;50.656;7.568;2023-01-23T06:53:53;16.55;;;8.80;;
5616;SDS011;2830;50.656;7.568;2023-01-23T06:56:19;16.95;;;8.05;;
5616;SDS011;2830;50.656;7.568;2023-01-23T06:58:46;15.13;;;7.55;;
5616;SDS011;2830;50.656;7.568;2023-01-23T07:01:14;17.63;;;8.75;;
5616;SDS011;2830;50.656;7.568;2023-01-23T07:03:43;16.08;;;7.43;;
5616;SDS011;2830;50.656;7.568;2023-01-23T07:06:11;16.30;;;8.13;;
5616;SDS011;2830;50.656;7.568;2023-01-23T07:08:38;15.18;;;7.88;;
5616;SDS011;2830;50.656;7.568;2023-01-23T07:11:05;14.57;;;6.70;;
5616;SDS011;2830;50.656;7.568;2023-01-23T07:13:32;17.60;;;7.03;;
5616;SDS011;2830;50.656;7.568;2023-01-23T07:15:59;17.27;;;7.47;;
5616;SDS011;2830;50.656;7.568;2023-01-23T07:18:27;18.73;;;8.52;;
5616;SDS011;2830;50.656;7.568;2023-01-23T07:20:55;16.58;;;7.50;;
5616;SDS011;2830;50.656;7.568;2023-01-23T07:23:22;16.23;;;7.20;;
5616;SDS011;2830;50.656;7.568;2023-01-23T07:25:48;20.02;;;10.95;;
5616;SDS011;2830;50.656;7.568;2023-01-23T07:28:15;16.55;;;7.97;;
5616;SDS011;2830;50.656;7.568;2023-01-23T07:30:42;16.88;;;8.23;;
5616;SDS011;2830;50.656;7.568;2023-01-23T07:33:09;18.88;;;8.88;;
5616;SDS011;2830;50.656;7.568;2023-01-23T07:35:37;14.65;;;7.30;;
5616;SDS011;2830;50.656;7.568;2023-01-23T07:38:04;18.20;;;8.57;;
5616;SDS011;2830;50.656;7.568;2023-01-23T07:40:31;16.45;;;7.40;;
5616;SDS011;2830;50.656;7.568;2023-01-23T07:42:58;17.42;;;7.88;;
5616;SDS011;2830;50.656;7.568;2023-01-23T07:45:24;16.52;;;7.93;;
5616;SDS011;2830;50.656;7.568;2023-01-23T07:47:51;18.02;;;8.05;;
5616;SDS011;2830;50.656;7.568;2023-01-23T07:50:18;16.27;;;7.88;;
5616;SDS011;2830;50.656;7.568;2023-01-23T07:52:45;17.70;;;8.88;;
5616;SDS011;2830;50.656;7.568;2023-01-23T07:55:11;15.40;;;7.75;;
5616;SDS011;2830;50.656;7.568;2023-01-23T07:57:38;18.05;;;7.97;;
5616;SDS011;2830;50.656;7.568;2023-01-23T08:00:05;16.58;;;8.10;;
5616;SDS011;2830;50.656;7.568;2023-01-23T08:02:32;14.52;;;7.22;;
5616;SDS011;2830;50.656;7.568;2023-01-23T08:04:59;16.92;;;7.10;;
5616;SDS011;2830;50.656;7.568;2023-01-23T08:07:27;15.48;;;6.68;;
5616;SDS011;2830;50.656;7.568;2023-01-23T08:09:53;15.27;;;7.22;;
5616;SDS011;2830;50.656;7.568;2023-01-23T08:12:20;13.93;;;6.10;;
5616;SDS011;2830;50.656;7.568;2023-01-23T08:14:47;16.63;;;5.95;;
5616;SDS011;2830;50.656;7.568;2023-01-23T08:17:13;15.57;;;6.75;;
5616;SDS011;2830;50.656;7.568;2023-01-23T08:19:40;14.45;;;6.05;;
5616;SDS011;2830;50.656;7.568;2023-01-23T08:22:07;14.18;;;5.90;;
5616;SDS011;2830;50.656;7.568;2023-01-23T08:24:33;15.32;;;6.38;;
5616;SDS011;2830;50.656;7.568;2023-01-23T08:27:00;14.60;;;6.97;;
5616;SDS011;2830;50.656;7.568;2023-01-23T08:29:26;15.40;;;7.15;;
5616;SDS011;2830;50.656;7.568;2023-01-23T08:31:53;14.02;;;7.13;;
5616;SDS011;2830;50.656;7.568;2023-01-23T08:34:20;14.50;;;7.03;;
5616;SDS011;2830;50.656;7.568;2023-01-23T08:36:49;14.30;;;7.22;;
5616;SDS011;2830;50.656;7.568;2023-01-23T08:39:16;14.30;;;6.65;;
5616;SDS011;2830;50.656;7.568;2023-01-23T08:41:43;13.02;;;6.05;;
5616;SDS011;2830;50.656;7.568;2023-01-23T08:44:10;14.10;;;6.55;;
5616;SDS011;2830;50.656;7.568;2023-01-23T08:46:36;12.95;;;6.30;;
5616;SDS011;2830;50.656;7.568;2023-01-23T08:49:03;15.35;;;7.35;;
5616;SDS011;2830;50.656;7.568;2023-01-23T08:51:30;13.25;;;5.80;;
5616;SDS011;2830;50.656;7.568;2023-01-23T08:53:57;11.25;;;4.45;;
5616;SDS011;2830;50.656;7.568;2023-01-23T08:56:24;10.90;;;4.40;;
5616;SDS011;2830;50.656;7.568;2023-01-23T08:58:51;11.05;;;4.50;;
5616;SDS011;2830;50.656;7.568;2023-01-23T09:01:19;11.70;;;5.10;;
5616;SDS011;2830;50.656;7.568;2023-01-23T09:03:47;16.77;;;8.18;;
5616;SDS011;2830;50.656;7.568;2023-01-23T09:06:15;13.93;;;6.75;;
5616;SDS011;2830;50.656;7.568;2023-01-23T09:08:43;9.30;;;3.38;;
5616;SDS011;2830;50.656;7.568;2023-01-23T09:11:10;11.73;;;4.53;;
5616;SDS011;2830;50.656;7.568;2023-01-23T09:13:38;10.05;;;3.40;;
5616;SDS011;2830;50.656;7.568;2023-01-23T09:16:05;8.60;;;3.03;;
5616;SDS011;2830;50.656;7.568;2023-01-23T09:18:36;10.77;;;3.70;;
5616;SDS011;2830;50.656;7.568;2023-01-23T09:21:07;10.32;;;4.18;;
5616;SDS011;2830;50.656;7.568;2023-01-23T09:23:36;8.80;;;3.20;;
5616;SDS011;2830;50.656;7.568;2023-01-23T09:26:07;9.20;;;3.42;;
5616;SDS011;2830;50.656;7.568;2023-01-23T09:28:37;10.55;;;3.55;;
5616;SDS011;2830;50.656;7.568;2023-01-23T09:31:07;9.10;;;3.38;;
5616;SDS011;2830;50.656;7.568;2023-01-23T09:33:36;8.95;;;3.28;;
5616;SDS011;2830;50.656;7.568;2023-01-23T09:36:03;9.45;;;3.22;;
5616;SDS011;2830;50.656;7.568;2023-01-23T09:38:30;10.00;;;3.40;;
5616;SDS011;2830;50.656;7.568;2023-01-23T09:40:59;9.98;;;3.50;;
5616;SDS011;2830;50.656;7.568;2023-01-23T09:46:15;8.73;;;3.30;;
5616;SDS011;2830;50.656;7.568;2023-01-23T09:51:48;8.02;;;2.58;;
5616;SDS011;2830;50.656;7.568;2023-01-23T09:57:11;8.43;;;2.83;;
5616;SDS011;2830;50.656;7.568;2023-01-23T10:00:03;9.32;;;2.88;;
5616;SDS011;2830;50.656;7.568;2023-01-23T10:02:36;8.32;;;2.60;;
5616;SDS011;2830;50.656;7.568;2023-01-23T10:05:02;8.48;;;2.65;;
5616;SDS011;2830;50.656;7.568;2023-01-23T10:10:20;8.18;;;2.45;;
5616;SDS011;2830;50.656;7.568;2023-01-23T10:16:27;9.43;;;3.38;;
5616;SDS011;2830;50.656;7.568;2023-01-23T10:24:59;8.75;;;2.50;;
5616;SDS011;2830;50.656;7.568;2023-01-23T10:30:24;8.32;;;2.60;;
5616;SDS011;2830;50.656;7.568;2023-01-23T10:35:52;9.35;;;3.13;;
5616;SDS011;2830;50.656;7.568;2023-01-23T10:38:42;9.68;;;3.13;;
5616;SDS011;2830;50.656;7.568;2023-01-23T10:41:14;9.65;;;3.28;;
5616;SDS011;2830;50.656;7.568;2023-01-23T10:43:49;9.50;;;2.95;;
5616;SDS011;2830;50.656;7.568;2023-01-23T10:46:19;9.40;;;3.05;;
5616;SDS011;2830;50.656;7.568;2023-01-23T10:51:25;9.60;;;2.97;;
5616;SDS011;2830;50.656;7.568;2023-01-23T10:57:01;8.63;;;2.67;;
5616;SDS011;2830;50.656;7.568;2023-01-23T10:59:39;10.10;;;3.25;;
5616;SDS011;2830;50.656;7.568;2023-01-23T11:02:18;10.20;;;2.90;;
5616;SDS011;2830;50.656;7.568;2023-01-23T11:04:51;9.95;;;3.30;;
5616;SDS011;2830;50.656;7.568;2023-01-23T11:07:28;9.05;;;2.88;;
5616;SDS011;2830;50.656;7.568;2023-01-23T11:09:59;9.60;;;3.00;;
5616;SDS011;2830;50.656;7.568;2023-01-23T11:12:46;10.93;;;3.60;;
5616;SDS011;2830;50.656;7.568;2023-01-23T11:15:23;8.82;;;2.85;;
5616;SDS011;2830;50.656;7.568;2023-01-23T11:17:56;9.23;;;2.88;;
5616;SDS011;2830;50.656;7.568;2023-01-23T11:25:36;10.60;;;3.45;;
5616;SDS011;2830;50.656;7.568;2023-01-23T11:31:00;11.32;;;3.90;;
5616;SDS011;2830;50.656;7.568;2023-01-23T11:33:41;11.18;;;3.50;;
5616;SDS011;2830;50.656;7.568;2023-01-23T11:36:36;12.02;;;3.97;;
5616;SDS011;2830;50.656;7.568;2023-01-23T11:39:10;10.02;;;3.50;;
5616;SDS011;2830;50.656;7.568;2023-01-23T11:41:44;10.90;;;3.72;;
5616;SDS011;2830;50.656;7.568;2023-01-23T11:44:18;10.02;;;3.08;;
5616;SDS011;2830;50.656;7.568;2023-01-23T11:52:30;10.10;;;3.60;;
5616;SDS011;2830;50.656;7.568;2023-01-23T12:09:01;10.63;;;3.80;;
5616;SDS011;2830;50.656;7.568;2023-01-23T12:12:01;11.02;;;4.07;;
5616;SDS011;2830;50.656;7.568;2023-01-23T12:14:57;11.57;;;4.05;;
5616;SDS011;2830;50.656;7.568;2023-01-23T12:20:36;11.23;;;4.00;;
5616;SDS011;2830;50.656;7.568;2023-01-23T12:23:24;11.23;;;3.85;;
5616;SDS011;2830;50.656;7.568;2023-01-23T12:26:11;12.10;;;4.45;;
5616;SDS011;2830;50.656;7.568;2023-01-23T12:28:52;10.85;;;3.53;;
5616;SDS011;2830;50.656;7.568;2023-01-23T12:37:47;10.60;;;3.95;;
5616;SDS011;2830;50.656;7.568;2023-01-23T12:40:36;12.05;;;4.63;;
5616;SDS011;2830;50.656;7.568;2023-01-23T12:48:54;13.02;;;5.25;;
5616;SDS011;2830;50.656;7.568;2023-01-23T12:51:38;11.40;;;4.40;;
5616;SDS011;2830;50.656;7.568;2023-01-23T12:54:13;11.38;;;4.30;;
5616;SDS011;2830;50.656;7.568;2023-01-23T12:56:43;13.20;;;4.55;;
5616;SDS011;2830;50.656;7.568;2023-01-23T12:59:25;12.32;;;5.75;;
5616;SDS011;2830;50.656;7.568;2023-01-23T13:05:09;11.88;;;4.63;;
5616;SDS011;2830;50.656;7.568;2023-01-23T13:13:17;12.65;;;5.45;;
5616;SDS011;2830;50.656;7.568;2023-01-23T13:15:59;12.88;;;5.50;;
5616;SDS011;2830;50.656;7.568;2023-01-23T13:18:28;11.40;;;4.75;;
5616;SDS011;2830;50.656;7.568;2023-01-23T13:20:55;11.95;;;4.95;;
5616;SDS011;2830;50.656;7.568;2023-01-23T13:23:42;11.40;;;3.80;;
5616;SDS011;2830;50.656;7.568;2023-01-23T13:31:23;10.82;;;3.75;;
5616;SDS011;2830;50.656;7.568;2023-01-23T13:36:42;11.93;;;4.40;;
5616;SDS011;2830;50.656;7.568;2023-01-23T13:44:31;13.90;;;4.15;;
5616;SDS011;2830;50.656;7.568;2023-01-23T13:50:07;13.30;;;4.65;;
5616;SDS011;2830;50.656;7.568;2023-01-23T13:52:56;12.13;;;4.85;;
5616;SDS011;2830;50.656;7.568;2023-01-23T13:55:57;12.10;;;4.57;;
5616;SDS011;2830;50.656;7.568;2023-01-23T13:58:57;13.70;;;5.07;;
5616;SDS011;2830;50.656;7.568;2023-01-23T14:01:40;10.95;;;4.30;;
5616;SDS011;2830;50.656;7.568;2023-01-23T14:04:53;11.55;;;4.55;;
5616;SDS011;2830;50.656;7.568;2023-01-23T14:08:02;11.02;;;4.10;;
5616;SDS011;2830;50.656;7.568;2023-01-23T14:10:45;11.95;;;4.63;;
5616;SDS011;2830;50.656;7.568;2023-01-23T14:13:28;11.60;;;4.35;;
5616;SDS011;2830;50.656;7.568;2023-01-23T14:16:10;12.50;;;4.80;;
5616;SDS011;2830;50.656;7.568;2023-01-23T14:18:56;11.10;;;4.25;;
5616;SDS011;2830;50.656;7.568;2023-01-23T14:21:50;11.15;;;4.47;;
5616;SDS011;2830;50.656;7.568;2023-01-23T14:24:23;11.73;;;4.80;;
5616;SDS011;2830;50.656;7.568;2023-01-23T14:27:05;10.68;;;3.95;;
5616;SDS011;2830;50.656;7.568;2023-01-23T14:29:34;12.15;;;4.97;;
5616;SDS011;2830;50.656;7.568;2023-01-23T14:32:01;14.70;;;5.90;;
5616;SDS011;2830;50.656;7.568;2023-01-23T14:34:28;12.70;;;4.93;;
5616;SDS011;2830;50.656;7.568;2023-01-23T14:37:00;12.05;;;4.72;;
5616;SDS011;2830;50.656;7.568;2023-01-23T14:39:29;12.10;;;5.50;;
5616;SDS011;2830;50.656;7.568;2023-01-23T14:41:58;14.25;;;6.03;;
5616;SDS011;2830;50.656;7.568;2023-01-23T14:44:41;11.13;;;4.43;;
5616;SDS011;2830;50.656;7.568;2023-01-23T14:50:14;12.40;;;4.90;;
5616;SDS011;2830;50.656;7.568;2023-01-23T14:52:42;12.60;;;5.40;;
5616;SDS011;2830;50.656;7.568;2023-01-23T14:55:22;15.00;;;6.22;;
5616;SDS011;2830;50.656;7.568;2023-01-23T14:57:55;12.70;;;5.03;;
5616;SDS011;2830;50.656;7.568;2023-01-23T15:00:24;14.65;;;6.20;;
5616;SDS011;2830;50.656;7.568;2023-01-23T15:02:52;14.95;;;6.03;;
5616;SDS011;2830;50.656;7.568;2023-01-23T15:05:22;17.05;;;7.30;;
5616;SDS011;2830;50.656;7.568;2023-01-23T15:07:56;12.35;;;5.45;;
5616;SDS011;2830;50.656;7.568;2023-01-23T15:10:29;13.85;;;6.05;;
5616;SDS011;2830;50.656;7.568;2023-01-23T15:13:02;14.05;;;6.75;;
5616;SDS011;2830;50.656;7.568;2023-01-23T15:15:51;12.18;;;5.35;;
5616;SDS011;2830;50.656;7.568;2023-01-23T15:18:30;13.20;;;5.40;;
5616;SDS011;2830;50.656;7.568;2023-01-23T15:21:00;12.85;;;5.13;;
5616;SDS011;2830;50.656;7.568;2023-01-23T15:28:53;13.73;;;6.10;;
5616;SDS011;2830;50.656;7.568;2023-01-23T15:36:46;13.73;;;5.80;;
5616;SDS011;2830;50.656;7.568;2023-01-23T15:39:36;13.93;;;6.32;;
5616;SDS011;2830;50.656;7.568;2023-01-23T15:44:37;13.77;;;6.18;;
5616;SDS011;2830;50.656;7.568;2023-01-23T15:47:04;15.32;;;7.57;;
5616;SDS011;2830;50.656;7.568;2023-01-23T15:49:37;14.68;;;7.05;;
5616;SDS011;2830;50.656;7.568;2023-01-23T15:52:22;13.13;;;5.70;;
5616;SDS011;2830;50.656;7.568;2023-01-23T15:54:52;13.10;;;5.85;;
5616;SDS011;2830;50.656;7.568;2023-01-23T15:57:23;12.82;;;5.82;;
5616;SDS011;2830;50.656;7.568;2023-01-23T15:59:49;13.23;;;6.28;;
5616;SDS011;2830;50.656;7.568;2023-01-23T16:02:20;14.32;;;6.88;;
5616;SDS011;2830;50.656;7.568;2023-01-23T16:04:58;13.80;;;6.60;;
5616;SDS011;2830;50.656;7.568;2023-01-23T16:07:31;14.30;;;6.55;;
5616;SDS011;2830;50.656;7.568;2023-01-23T16:10:02;14.68;;;6.13;;
5616;SDS011;2830;50.656;7.568;2023-01-23T16:12:31;13.80;;;6.30;;
5616;SDS011;2830;50.656;7.568;2023-01-23T16:14:58;18.17;;;10.18;;
5616;SDS011;2830;50.656;7.568;2023-01-23T16:17:24;14.30;;;6.80;;
5616;SDS011;2830;50.656;7.568;2023-01-23T16:19:51;12.43;;;5.65;;
5616;SDS011;2830;50.656;7.568;2023-01-23T16:22:25;13.15;;;5.97;;
5616;SDS011;2830;50.656;7.568;2023-01-23T16:24:54;14.75;;;6.90;;
5616;SDS011;2830;50.656;7.568;2023-01-23T16:27:22;13.35;;;6.28;;
5616;SDS011;2830;50.656;7.568;2023-01-23T16:29:53;15.00;;;6.75;;
5616;SDS011;2830;50.656;7.568;2023-01-23T16:32:20;12.50;;;6.22;;
5616;SDS011;2830;50.656;7.568;2023-01-23T16:34:47;13.20;;;6.10;;
5616;SDS011;2830;50.656;7.568;2023-01-23T16:37:15;15.90;;;6.80;;
5616;SDS011;2830;50.656;7.568;2023-01-23T16:39:45;14.07;;;6.50;;
5616;SDS011;2830;50.656;7.568;2023-01-23T16:42:20;13.60;;;6.18;;
5616;SDS011;2830;50.656;7.568;2023-01-23T16:44:48;16.48;;;7.43;;
5616;SDS011;2830;50.656;7.568;2023-01-23T16:47:15;17.55;;;8.50;;
5616;SDS011;2830;50.656;7.568;2023-01-23T16:49:42;12.85;;;6.25;;
5616;SDS011;2830;50.656;7.568;2023-01-23T16:52:18;17.83;;;9.85;;
5616;SDS011;2830;50.656;7.568;2023-01-23T16:54:45;12.45;;;6.35;;
5616;SDS011;2830;50.656;7.568;2023-01-23T16:57:13;16.13;;;9.25;;
5616;SDS011;2830;50.656;7.568;2023-01-23T16:59:45;15.82;;;7.60;;
5616;SDS011;2830;50.656;7.568;2023-01-23T17:02:26;14.20;;;7.53;;
5616;SDS011;2830;50.656;7.568;2023-01-23T17:04:56;13.75;;;6.97;;
5616;SDS011;2830;50.656;7.568;2023-01-23T17:07:22;15.98;;;7.45;;
5616;SDS011;2830;50.656;7.568;2023-01-23T17:09:49;21.20;;;13.80;;
5616;SDS011;2830;50.656;7.568;2023-01-23T17:12:17;14.60;;;7.50;;
5616;SDS011;2830;50.656;7.568;2023-01-23T17:14:47;13.25;;;7.00;;
5616;SDS011;2830;50.656;7.568;2023-01-23T17:17:16;14.85;;;7.35;;
5616;SDS011;2830;50.656;7.568;2023-01-23T17:19:52;15.82;;;7.63;;
5616;SDS011;2830;50.656;7.568;2023-01-23T17:22:21;13.95;;;6.20;;
5616;SDS011;2830;50.656;7.568;2023-01-23T17:24:50;18.70;;;11.77;;